createdAt,value
2018-08-03T00:00:49.284Z,0.00
2018-08-03T00:01:49.290Z,0.00
2018-08-03T00:02:49.295Z,0.00
2018-08-03T00:03:49.302Z,0.00
2018-08-03T00:04:49.308Z,0.00
2018-08-03T00:05:49.321Z,0.00
2018-08-03T00:06:49.320Z,0.00
2018-08-03T00:07:49.325Z,0.00
2018-08-03T00:08:49.331Z,0.00
2018-08-03T00:09:49.336Z,0.00
2018-08-03T00:10:49.346Z,0.00
2018-08-03T00:11:49.348Z,0.00
2018-08-03T00:12:49.354Z,0.00
2018-08-03T00:13:49.359Z,0.00
2018-08-03T00:14:49.364Z,0.00
2018-08-03T00:15:49.371Z,0.00
2018-08-03T00:16:49.377Z,0.00
2018-08-03T00:17:49.383Z,0.00
2018-08-03T00:18:49.389Z,0.00
2018-08-03T00:19:49.393Z,0.00
2018-08-03T00:20:49.400Z,0.00
2018-08-03T00:21:49.404Z,0.00
2018-08-03T00:22:49.411Z,0.00
2018-08-03T00:23:49.417Z,0.00
2018-08-03T00:24:49.422Z,0.00
2018-08-03T00:25:49.427Z,0.00
2018-08-03T00:26:49.433Z,0.00
2018-08-03T00:27:49.440Z,0.00
2018-08-03T00:28:49.444Z,0.00
2018-08-03T00:29:49.449Z,0.00
2018-08-03T00:30:49.455Z,0.00
2018-08-03T00:31:49.463Z,0.00
2018-08-03T00:32:49.467Z,0.00
2018-08-03T00:33:49.472Z,0.00
2018-08-03T00:34:49.477Z,0.00
2018-08-03T00:35:49.484Z,0.00
2018-08-03T00:36:49.490Z,0.00
2018-08-03T00:37:49.493Z,0.00
2018-08-03T00:38:49.499Z,0.00
2018-08-03T00:39:49.507Z,0.00
2018-08-03T00:40:49.515Z,0.00
2018-08-03T00:41:49.515Z,0.00
2018-08-03T00:42:49.522Z,0.00
2018-08-03T00:43:49.528Z,0.00
2018-08-03T00:44:49.539Z,0.00
2018-08-03T00:45:49.538Z,0.00
2018-08-03T00:46:49.545Z,0.00
2018-08-03T00:47:49.550Z,0.00
2018-08-03T00:48:49.556Z,0.00
2018-08-03T00:49:49.561Z,0.00
2018-08-03T00:50:49.567Z,0.00
2018-08-03T00:51:49.572Z,0.00
2018-08-03T00:52:49.578Z,0.00
2018-08-03T00:53:49.583Z,0.00
2018-08-03T00:54:49.588Z,0.00
2018-08-03T00:55:49.595Z,0.00
2018-08-03T00:56:49.600Z,0.00
2018-08-03T00:57:49.605Z,0.00
2018-08-03T00:58:49.611Z,0.00
2018-08-03T00:59:49.615Z,0.00
2018-08-03T01:00:49.621Z,0.00
2018-08-03T01:01:49.627Z,0.00
2018-08-03T01:02:49.632Z,0.00
2018-08-03T01:03:49.640Z,0.00
2018-08-03T01:04:49.643Z,0.00
2018-08-03T01:05:49.649Z,0.00
2018-08-03T01:06:49.653Z,0.00
2018-08-03T01:07:49.660Z,0.00
2018-08-03T01:08:49.665Z,0.00
2018-08-03T01:09:49.673Z,0.00
2018-08-03T01:10:49.675Z,0.00
2018-08-03T01:11:49.680Z,0.00
2018-08-03T01:12:49.686Z,0.00
2018-08-03T01:13:49.692Z,0.00
2018-08-03T01:14:49.698Z,0.00
2018-08-03T01:15:49.701Z,0.00
2018-08-03T01:16:49.708Z,0.00
2018-08-03T01:17:49.712Z,0.00
2018-08-03T01:18:49.718Z,0.00
2018-08-03T01:19:49.723Z,0.00
2018-08-03T01:20:49.730Z,0.00
2018-08-03T01:21:49.735Z,0.00
2018-08-03T01:22:49.739Z,0.00
2018-08-03T01:23:49.745Z,0.00
2018-08-03T01:24:49.750Z,0.00
2018-08-03T01:25:49.756Z,0.00
2018-08-03T01:26:49.760Z,0.00
2018-08-03T01:27:49.767Z,0.00
2018-08-03T01:28:49.771Z,0.00
2018-08-03T01:29:49.775Z,0.00
2018-08-03T01:30:49.782Z,0.00
2018-08-03T01:31:49.787Z,0.00
2018-08-03T01:32:49.792Z,0.00
2018-08-03T01:33:49.797Z,0.00
2018-08-03T01:34:49.802Z,0.00
2018-08-03T01:35:49.809Z,0.00
2018-08-03T01:36:49.812Z,0.00
2018-08-03T01:37:49.874Z,0.00
2018-08-03T01:38:49.823Z,0.00
2018-08-03T01:39:49.828Z,0.00
2018-08-03T01:40:49.835Z,0.00
2018-08-03T01:41:49.838Z,0.00
2018-08-03T01:42:49.844Z,0.00
2018-08-03T01:43:49.850Z,0.00
2018-08-03T01:44:49.856Z,0.00
2018-08-03T01:45:49.860Z,0.00
2018-08-03T01:46:49.868Z,0.00
2018-08-03T01:47:49.871Z,0.00
2018-08-03T01:48:49.877Z,0.00
2018-08-03T01:49:49.881Z,0.00
2018-08-03T01:50:49.887Z,0.00
2018-08-03T01:51:49.892Z,0.00
2018-08-03T01:52:49.896Z,0.00
2018-08-03T01:53:49.901Z,0.00
2018-08-03T01:54:49.905Z,0.00
2018-08-03T01:55:49.912Z,0.00
2018-08-03T01:56:49.917Z,0.00
2018-08-03T01:57:49.923Z,0.00
2018-08-03T01:58:49.927Z,0.00
2018-08-03T01:59:49.933Z,0.00
2018-08-03T02:00:49.937Z,0.00
2018-08-03T02:01:49.945Z,0.00
2018-08-03T02:02:49.948Z,0.00
2018-08-03T02:03:49.954Z,0.00
2018-08-03T02:04:49.958Z,0.00
2018-08-03T02:05:49.964Z,0.00
2018-08-03T02:06:49.975Z,0.00
2018-08-03T02:07:49.974Z,0.00
2018-08-03T02:08:49.979Z,0.00
2018-08-03T02:09:49.983Z,0.00
2018-08-03T02:10:49.988Z,0.00
2018-08-03T02:11:49.994Z,0.00
2018-08-03T02:12:49.999Z,0.00
2018-08-03T02:13:50.004Z,0.00
2018-08-03T02:14:50.009Z,0.00
2018-08-03T02:15:50.014Z,0.00
2018-08-03T02:16:50.019Z,0.00
2018-08-03T02:17:50.024Z,0.00
2018-08-03T02:18:50.031Z,0.00
2018-08-03T02:19:50.033Z,0.00
2018-08-03T02:20:50.039Z,0.00
2018-08-03T02:21:50.045Z,0.00
2018-08-03T02:22:50.048Z,0.00
2018-08-03T02:23:50.053Z,0.00
2018-08-03T02:24:50.062Z,0.00
2018-08-03T02:25:50.064Z,0.00
2018-08-03T02:26:50.070Z,0.00
2018-08-03T02:27:50.073Z,0.00
2018-08-03T02:28:50.078Z,0.00
2018-08-03T02:29:50.083Z,0.00
2018-08-03T02:30:50.089Z,0.00
2018-08-03T02:31:50.093Z,0.00
2018-08-03T02:32:50.098Z,0.00
2018-08-03T02:33:50.103Z,0.00
2018-08-03T02:34:50.110Z,0.00
2018-08-03T02:35:50.113Z,0.00
2018-08-03T02:36:50.117Z,0.00
2018-08-03T02:37:50.122Z,0.00
2018-08-03T02:38:50.127Z,0.00
2018-08-03T02:39:50.140Z,0.00
2018-08-03T02:40:50.138Z,0.00
2018-08-03T02:41:50.142Z,0.00
2018-08-03T02:42:50.149Z,0.00
2018-08-03T02:43:50.152Z,0.00
2018-08-03T02:44:50.156Z,0.00
2018-08-03T02:45:50.161Z,0.00
2018-08-03T02:46:50.165Z,0.00
2018-08-03T02:47:50.170Z,0.00
2018-08-03T02:48:50.176Z,0.00
2018-08-03T02:49:50.181Z,0.00
2018-08-03T02:50:50.186Z,0.00
2018-08-03T02:51:50.191Z,0.00
2018-08-03T02:52:50.195Z,0.00
2018-08-03T02:53:50.198Z,0.00
2018-08-03T02:54:50.204Z,0.00
2018-08-03T02:55:50.209Z,0.00
2018-08-03T02:56:50.214Z,0.00
2018-08-03T02:57:50.218Z,0.00
2018-08-03T02:58:50.225Z,0.00
2018-08-03T02:59:50.227Z,0.00
2018-08-03T03:00:50.234Z,0.00
2018-08-03T03:01:50.242Z,0.00
2018-08-03T03:02:50.243Z,0.00
2018-08-03T03:03:50.247Z,0.00
2018-08-03T03:04:50.253Z,0.00
2018-08-03T03:05:50.258Z,0.00
2018-08-03T03:06:50.262Z,0.00
2018-08-03T03:07:50.268Z,0.00
2018-08-03T03:08:50.271Z,0.00
2018-08-03T03:09:50.275Z,0.00
2018-08-03T03:10:50.281Z,0.00
2018-08-03T03:11:50.285Z,0.00
2018-08-03T03:12:50.290Z,0.00
2018-08-03T03:13:50.294Z,0.00
2018-08-03T03:14:50.300Z,0.00
2018-08-03T03:15:50.304Z,0.00
2018-08-03T03:16:50.310Z,0.00
2018-08-03T03:17:50.312Z,0.00
2018-08-03T03:18:50.318Z,0.00
2018-08-03T03:19:50.394Z,0.00
2018-08-03T03:20:50.328Z,0.00
2018-08-03T03:21:50.331Z,0.00
2018-08-03T03:22:50.338Z,0.00
2018-08-03T03:23:50.344Z,0.00
2018-08-03T03:24:50.348Z,0.00
2018-08-03T03:25:50.351Z,0.00
2018-08-03T03:26:50.354Z,0.00
2018-08-03T03:27:50.362Z,0.00
2018-08-03T03:28:50.366Z,0.00
2018-08-03T03:29:50.369Z,0.00
2018-08-03T03:30:50.376Z,0.00
2018-08-03T03:31:50.380Z,0.00
2018-08-03T03:32:50.384Z,0.00
2018-08-03T03:33:50.387Z,0.00
2018-08-03T03:34:50.393Z,0.00
2018-08-03T03:35:50.398Z,0.00
2018-08-03T03:36:50.402Z,0.00
2018-08-03T03:37:50.408Z,0.00
2018-08-03T03:38:50.411Z,0.00
2018-08-03T03:39:50.415Z,0.00
2018-08-03T03:40:50.421Z,0.00
2018-08-03T03:41:50.425Z,0.00
2018-08-03T03:42:50.428Z,0.00
2018-08-03T03:43:50.435Z,0.00
2018-08-03T03:44:50.440Z,0.00
2018-08-03T03:45:50.443Z,0.00
2018-08-03T03:46:50.448Z,0.00
2018-08-03T03:47:50.454Z,0.00
2018-08-03T03:48:50.457Z,5.63
2018-08-03T03:49:50.463Z,5.63
2018-08-03T03:50:50.467Z,5.63
2018-08-03T03:51:50.473Z,5.63
2018-08-03T03:52:50.479Z,5.63
2018-08-03T03:53:50.481Z,5.63
2018-08-03T03:54:50.492Z,5.63
2018-08-03T03:55:50.491Z,5.63
2018-08-03T03:56:50.495Z,5.63
2018-08-03T03:57:50.499Z,11.25
2018-08-03T03:58:50.503Z,11.25
2018-08-03T03:59:50.508Z,11.25
2018-08-03T04:00:50.514Z,11.25
2018-08-03T04:01:50.518Z,11.25
2018-08-03T04:02:50.523Z,11.25
2018-08-03T04:03:50.530Z,16.88
2018-08-03T04:04:50.532Z,16.88
2018-08-03T04:05:50.536Z,16.88
2018-08-03T04:06:50.540Z,16.88
2018-08-03T04:07:50.545Z,16.88
2018-08-03T04:08:50.551Z,22.50
2018-08-03T04:09:50.553Z,22.50
2018-08-03T04:10:50.580Z,22.50
2018-08-03T04:11:50.563Z,22.50
2018-08-03T04:12:50.568Z,28.13
2018-08-03T04:13:50.573Z,28.13
2018-08-03T04:14:50.579Z,28.13
2018-08-03T04:15:50.581Z,28.13
2018-08-03T04:16:50.586Z,33.75
2018-08-03T04:17:50.590Z,33.75
2018-08-03T04:18:50.594Z,33.75
2018-08-03T04:19:50.601Z,39.38
2018-08-03T04:20:50.608Z,39.38
2018-08-03T04:21:50.608Z,39.38
2018-08-03T04:22:50.614Z,39.38
2018-08-03T04:23:50.618Z,45.00
2018-08-03T04:24:50.622Z,45.00
2018-08-03T04:25:50.626Z,45.00
2018-08-03T04:26:50.630Z,50.63
2018-08-03T04:27:50.636Z,50.63
2018-08-03T04:28:50.640Z,50.63
2018-08-03T04:29:50.646Z,56.25
2018-08-03T04:30:50.652Z,56.25
2018-08-03T04:31:50.655Z,56.25
2018-08-03T04:32:50.659Z,61.88
2018-08-03T04:33:50.666Z,61.88
2018-08-03T04:34:50.668Z,67.50
2018-08-03T04:35:50.671Z,67.50
2018-08-03T04:36:50.678Z,67.50
2018-08-03T04:37:50.681Z,73.13
2018-08-03T04:38:50.730Z,73.13
2018-08-03T04:39:50.690Z,73.13
2018-08-03T04:40:50.696Z,78.75
2018-08-03T04:41:50.699Z,78.75
2018-08-03T04:42:50.703Z,84.38
2018-08-03T04:43:50.710Z,84.38
2018-08-03T04:44:50.712Z,84.38
2018-08-03T04:45:50.717Z,90.00
2018-08-03T04:46:50.723Z,90.00
2018-08-03T04:47:50.775Z,90.00
2018-08-03T04:48:50.732Z,95.63
2018-08-03T04:49:50.734Z,95.63
2018-08-03T04:50:50.742Z,101.25
2018-08-03T04:51:50.744Z,101.25
2018-08-03T04:52:50.749Z,101.25
2018-08-03T04:53:50.752Z,106.88
2018-08-03T04:54:50.849Z,106.88
2018-08-03T04:55:50.766Z,112.50
2018-08-03T04:56:50.768Z,112.50
2018-08-03T04:57:50.770Z,118.13
2018-08-03T04:58:50.775Z,118.13
2018-08-03T04:59:50.781Z,123.75
2018-08-03T05:00:50.786Z,123.75
2018-08-03T05:01:50.788Z,123.75
2018-08-03T05:02:50.794Z,129.38
2018-08-03T05:03:50.798Z,129.38
2018-08-03T05:04:50.896Z,135.00
2018-08-03T05:05:50.808Z,135.00
2018-08-03T05:06:50.812Z,140.63
2018-08-03T05:07:50.817Z,140.63
2018-08-03T05:08:50.824Z,140.63
2018-08-03T05:09:50.825Z,146.25
2018-08-03T05:10:50.831Z,146.25
2018-08-03T05:11:50.836Z,151.88
2018-08-03T05:12:50.842Z,151.88
2018-08-03T05:13:50.847Z,157.50
2018-08-03T05:14:50.850Z,157.50
2018-08-03T05:15:50.856Z,163.13
2018-08-03T05:16:50.859Z,163.13
2018-08-03T05:17:50.863Z,168.75
2018-08-03T05:18:50.868Z,168.75
2018-08-03T05:19:50.874Z,168.75
2018-08-03T05:20:50.878Z,168.75
2018-08-03T05:21:50.882Z,180.00
2018-08-03T05:22:50.892Z,174.38
2018-08-03T05:23:50.892Z,174.38
2018-08-03T05:24:50.897Z,180.00
2018-08-03T05:25:50.901Z,180.00
2018-08-03T05:26:50.909Z,185.63
2018-08-03T05:27:50.913Z,185.63
2018-08-03T05:28:50.917Z,191.25
2018-08-03T05:29:50.921Z,191.25
2018-08-03T05:30:50.927Z,196.88
2018-08-03T05:31:50.934Z,202.50
2018-08-03T05:32:50.936Z,202.50
2018-08-03T05:33:50.942Z,202.50
2018-08-03T05:34:50.948Z,202.50
2018-08-03T05:35:51.013Z,208.13
2018-08-03T05:36:50.956Z,208.13
2018-08-03T05:37:50.961Z,213.75
2018-08-03T05:38:50.967Z,213.75
2018-08-03T05:39:50.976Z,213.75
2018-08-03T05:40:50.978Z,219.38
2018-08-03T05:41:50.984Z,219.38
2018-08-03T05:42:50.987Z,225.00
2018-08-03T05:43:50.995Z,230.63
2018-08-03T05:44:50.999Z,230.63
2018-08-03T05:45:51.005Z,230.63
2018-08-03T05:46:51.009Z,236.25
2018-08-03T05:47:51.015Z,236.25
2018-08-03T05:48:51.021Z,241.88
2018-08-03T05:49:51.030Z,241.88
2018-08-03T05:50:51.031Z,241.88
2018-08-03T05:51:51.038Z,247.50
2018-08-03T05:52:51.043Z,247.50
2018-08-03T05:53:51.047Z,253.13
2018-08-03T05:54:51.054Z,253.13
2018-08-03T05:55:51.058Z,258.75
2018-08-03T05:56:51.065Z,258.75
2018-08-03T05:57:51.099Z,258.75
2018-08-03T05:58:51.076Z,264.38
2018-08-03T05:59:51.082Z,264.38
2018-08-03T06:00:51.088Z,270.00
2018-08-03T06:01:51.095Z,270.00
2018-08-03T06:02:51.100Z,270.00
2018-08-03T06:03:51.109Z,275.63
2018-08-03T06:04:51.111Z,275.63
2018-08-03T06:05:51.116Z,275.63
2018-08-03T06:06:51.124Z,281.25
2018-08-03T06:07:51.130Z,281.25
2018-08-03T06:08:51.134Z,281.25
2018-08-03T06:09:51.152Z,286.88
2018-08-03T06:10:51.147Z,286.88
2018-08-03T06:11:51.153Z,286.88
2018-08-03T06:12:51.159Z,292.50
2018-08-03T06:13:51.164Z,292.50
2018-08-03T06:14:51.172Z,292.50
2018-08-03T06:15:51.178Z,298.13
2018-08-03T06:16:51.184Z,298.13
2018-08-03T06:17:51.190Z,298.13
2018-08-03T06:18:51.196Z,303.75
2018-08-03T06:19:51.201Z,303.75
2018-08-03T06:20:51.208Z,309.38
2018-08-03T06:21:51.213Z,309.38
2018-08-03T06:22:51.220Z,315.00
2018-08-03T06:23:51.226Z,315.00
2018-08-03T06:24:51.233Z,315.00
2018-08-03T06:25:51.240Z,320.63
2018-08-03T06:26:51.246Z,320.63
2018-08-03T06:27:51.254Z,320.63
2018-08-03T06:28:51.258Z,326.25
2018-08-03T06:29:51.268Z,326.25
2018-08-03T06:30:51.272Z,326.25
2018-08-03T06:31:51.279Z,331.88
2018-08-03T06:32:51.284Z,337.50
2018-08-03T06:33:51.294Z,337.50
2018-08-03T06:34:51.297Z,343.13
2018-08-03T06:35:51.305Z,343.13
2018-08-03T06:36:51.310Z,343.13
2018-08-03T06:37:51.316Z,348.75
2018-08-03T06:38:51.323Z,348.75
2018-08-03T06:39:51.332Z,348.75
2018-08-03T06:40:51.355Z,348.75
2018-08-03T06:41:51.344Z,354.38
2018-08-03T06:42:51.356Z,354.38
2018-08-03T06:43:51.361Z,360.00
2018-08-03T06:44:51.365Z,360.00
2018-08-03T06:45:51.372Z,365.63
2018-08-03T06:46:51.379Z,365.63
2018-08-03T06:47:51.385Z,365.63
2018-08-03T06:48:51.394Z,371.25
2018-08-03T06:49:51.400Z,371.25
2018-08-03T06:50:51.405Z,371.25
2018-08-03T06:51:51.416Z,371.25
2018-08-03T06:52:51.421Z,371.25
2018-08-03T06:53:51.476Z,371.25
2018-08-03T06:54:51.434Z,371.25
2018-08-03T06:55:51.441Z,371.25
2018-08-03T06:56:51.449Z,376.88
2018-08-03T06:57:51.456Z,376.88
2018-08-03T06:58:51.469Z,376.88
2018-08-03T06:59:51.470Z,382.50
2018-08-03T07:00:51.477Z,382.50
2018-08-03T07:01:51.485Z,382.50
2018-08-03T07:02:51.550Z,382.50
2018-08-03T07:03:51.499Z,388.13
2018-08-03T07:04:51.506Z,388.13
2018-08-03T07:05:51.513Z,388.13
2018-08-03T07:06:51.520Z,393.75
2018-08-03T07:07:51.529Z,393.75
2018-08-03T07:08:51.537Z,393.75
2018-08-03T07:09:51.543Z,393.75
2018-08-03T07:10:51.550Z,399.38
2018-08-03T07:11:51.561Z,399.38
2018-08-03T07:12:51.565Z,399.38
2018-08-03T07:13:51.572Z,405.00
2018-08-03T07:14:51.613Z,405.00
2018-08-03T07:15:51.587Z,405.00
2018-08-03T07:16:51.600Z,405.00
2018-08-03T07:17:51.603Z,405.00
2018-08-03T07:18:51.610Z,410.63
2018-08-03T07:19:51.684Z,410.63
2018-08-03T07:20:51.625Z,410.63
2018-08-03T07:21:51.633Z,416.25
2018-08-03T07:22:51.640Z,416.25
2018-08-03T07:23:51.649Z,416.25
2018-08-03T07:24:51.658Z,416.25
2018-08-03T07:25:51.703Z,416.25
2018-08-03T07:26:51.671Z,421.88
2018-08-03T07:27:51.691Z,421.88
2018-08-03T07:28:51.687Z,421.88
2018-08-03T07:29:51.695Z,421.88
2018-08-03T07:30:51.703Z,427.50
2018-08-03T07:31:51.711Z,427.50
2018-08-03T07:32:51.718Z,427.50
2018-08-03T07:33:51.728Z,427.50
2018-08-03T07:34:51.733Z,433.13
2018-08-03T07:35:51.742Z,433.13
2018-08-03T07:36:51.760Z,433.13
2018-08-03T07:37:51.762Z,433.13
2018-08-03T07:38:51.766Z,438.75
2018-08-03T07:39:51.775Z,438.75
2018-08-03T07:40:51.783Z,438.75
2018-08-03T07:41:51.790Z,438.75
2018-08-03T07:42:51.823Z,444.38
2018-08-03T07:43:51.806Z,444.38
2018-08-03T07:44:51.836Z,450.00
2018-08-03T07:45:51.823Z,450.00
2018-08-03T07:46:51.836Z,450.00
2018-08-03T07:47:51.841Z,450.00
2018-08-03T07:48:51.849Z,455.63
2018-08-03T07:49:51.860Z,461.25
2018-08-03T07:50:51.866Z,455.63
2018-08-03T07:51:51.874Z,461.25
2018-08-03T07:52:51.882Z,461.25
2018-08-03T07:53:51.897Z,466.88
2018-08-03T07:54:51.900Z,466.88
2018-08-03T07:55:51.908Z,478.13
2018-08-03T07:56:51.916Z,900.00
2018-08-03T07:57:51.925Z,1839.38
2018-08-03T07:58:51.936Z,2711.25
2018-08-03T07:59:51.942Z,3408.75
2018-08-03T08:00:51.951Z,3363.75
2018-08-03T08:01:51.966Z,3318.75
2018-08-03T08:02:51.970Z,3375.00
2018-08-03T08:03:51.979Z,3431.25
2018-08-03T08:04:51.992Z,3504.38
2018-08-03T08:05:52.003Z,3504.38
2018-08-03T08:06:52.015Z,3391.88
2018-08-03T08:07:52.024Z,3211.88
2018-08-03T08:08:52.040Z,3262.50
2018-08-03T08:09:52.050Z,3166.88
2018-08-03T08:10:52.062Z,3155.63
2018-08-03T08:11:52.075Z,3391.88
2018-08-03T08:12:52.089Z,3448.13
2018-08-03T08:13:52.102Z,3408.75
2018-08-03T08:14:52.115Z,3448.13
2018-08-03T08:15:52.130Z,3290.63
2018-08-03T08:16:52.194Z,3335.63
2018-08-03T08:17:52.159Z,3465.00
2018-08-03T08:18:52.173Z,3420.00
2018-08-03T08:19:52.188Z,3487.50
2018-08-03T08:20:52.204Z,3459.38
2018-08-03T08:21:52.218Z,3369.38
2018-08-03T08:22:52.234Z,3459.38
2018-08-03T08:23:52.250Z,3436.88
2018-08-03T08:24:52.264Z,3425.63
2018-08-03T08:25:52.279Z,3307.50
2018-08-03T08:26:52.298Z,3352.50
2018-08-03T08:27:52.313Z,3515.63
2018-08-03T08:28:52.327Z,3436.88
2018-08-03T08:29:52.343Z,3285.00
2018-08-03T08:30:52.358Z,3431.25
2018-08-03T08:31:52.374Z,3526.88
2018-08-03T08:32:52.391Z,3453.75
2018-08-03T08:33:52.405Z,3442.50
2018-08-03T08:34:52.421Z,3510.00
2018-08-03T08:35:52.438Z,3481.88
2018-08-03T08:36:52.466Z,3375.00
2018-08-03T08:37:52.470Z,3363.75
2018-08-03T08:38:52.489Z,3369.38
2018-08-03T08:39:52.503Z,3403.13
2018-08-03T08:40:52.520Z,3453.75
2018-08-03T08:41:52.537Z,3380.63
2018-08-03T08:42:52.553Z,3397.50
2018-08-03T08:43:52.651Z,3453.75
2018-08-03T08:44:52.591Z,3476.25
2018-08-03T08:45:52.604Z,3431.25
2018-08-03T08:46:52.621Z,3414.38
2018-08-03T08:47:52.636Z,3335.63
2018-08-03T08:48:52.656Z,3436.88
2018-08-03T08:49:52.671Z,3200.63
2018-08-03T08:50:52.689Z,2981.25
2018-08-03T08:51:52.706Z,3240.00
2018-08-03T08:52:52.724Z,3301.88
2018-08-03T08:53:52.741Z,3313.13
2018-08-03T08:54:52.777Z,3335.63
2018-08-03T08:55:52.776Z,3240.00
2018-08-03T08:56:52.793Z,3301.88
2018-08-03T08:57:52.809Z,3358.13
2018-08-03T08:58:52.828Z,3228.75
2018-08-03T08:59:52.845Z,3223.13
2018-08-03T09:00:52.888Z,3256.88
2018-08-03T09:01:52.880Z,3223.13
2018-08-03T09:02:52.900Z,3273.75
2018-08-03T09:03:52.916Z,3161.25
2018-08-03T09:04:52.934Z,3060.00
2018-08-03T09:05:52.952Z,3110.63
2018-08-03T09:06:53.046Z,3268.13
2018-08-03T09:07:53.050Z,3279.38
2018-08-03T09:08:53.008Z,3223.13
2018-08-03T09:09:53.024Z,3178.13
2018-08-03T09:10:53.041Z,3211.88
2018-08-03T09:11:53.061Z,3161.25
2018-08-03T09:12:53.111Z,3228.75
2018-08-03T09:13:53.096Z,3273.75
2018-08-03T09:14:53.119Z,3268.13
2018-08-03T09:15:53.133Z,3200.63
2018-08-03T09:16:53.150Z,3273.75
2018-08-03T09:17:53.168Z,3279.38
2018-08-03T09:18:53.188Z,3172.50
2018-08-03T09:19:53.206Z,3155.63
2018-08-03T09:20:53.226Z,3093.75
2018-08-03T09:21:53.243Z,3060.00
2018-08-03T09:22:53.264Z,3217.50
2018-08-03T09:23:53.281Z,3183.75
2018-08-03T09:24:53.302Z,3172.50
2018-08-03T09:25:53.318Z,3116.25
2018-08-03T09:26:53.339Z,3065.63
2018-08-03T09:27:53.357Z,3110.63
2018-08-03T09:28:53.376Z,3155.63
2018-08-03T09:29:53.393Z,3144.38
2018-08-03T09:30:53.420Z,3093.75
2018-08-03T09:31:53.432Z,3037.50
2018-08-03T09:32:53.453Z,3082.50
2018-08-03T09:33:53.469Z,3020.63
2018-08-03T09:34:53.490Z,3048.75
2018-08-03T09:35:53.508Z,3099.38
2018-08-03T09:36:53.529Z,2913.75
2018-08-03T09:37:53.546Z,2880.00
2018-08-03T09:38:53.566Z,2936.25
2018-08-03T09:39:53.585Z,2941.88
2018-08-03T09:40:53.606Z,2981.25
2018-08-03T09:41:53.623Z,2964.38
2018-08-03T09:42:53.696Z,2913.75
2018-08-03T09:43:53.665Z,2908.13
2018-08-03T09:44:53.681Z,3065.63
2018-08-03T09:45:53.699Z,3015.00
2018-08-03T09:46:53.718Z,2970.00
2018-08-03T09:47:53.738Z,2851.88
2018-08-03T09:48:53.757Z,2851.88
2018-08-03T09:49:53.776Z,2891.25
2018-08-03T09:50:53.795Z,2874.38
2018-08-03T09:51:53.814Z,2891.25
2018-08-03T09:52:53.836Z,2908.13
2018-08-03T09:53:53.851Z,2953.13
2018-08-03T09:54:53.870Z,2975.63
2018-08-03T09:55:53.888Z,2975.63
2018-08-03T09:56:53.907Z,2958.75
2018-08-03T09:57:53.924Z,2941.88
2018-08-03T09:58:53.944Z,3031.88
2018-08-03T09:59:53.963Z,3110.63
2018-08-03T10:00:53.980Z,3048.75
2018-08-03T10:01:53.999Z,3093.75
2018-08-03T10:02:54.018Z,3020.63
2018-08-03T10:03:54.036Z,2497.50
2018-08-03T10:04:54.054Z,2362.50
2018-08-03T10:05:54.080Z,2430.00
2018-08-03T10:06:54.091Z,2401.88
2018-08-03T10:07:54.110Z,2401.88
2018-08-03T10:08:54.128Z,2621.25
2018-08-03T10:09:54.146Z,3003.75
2018-08-03T10:10:54.165Z,3712.50
2018-08-03T10:11:54.188Z,4421.25
2018-08-03T10:12:54.222Z,4275.00
2018-08-03T10:13:54.219Z,4055.63
2018-08-03T10:14:54.239Z,4775.63
2018-08-03T10:15:54.256Z,4005.00
2018-08-03T10:16:54.276Z,1378.13
2018-08-03T10:17:54.293Z,945.00
2018-08-03T10:18:54.313Z,883.13
2018-08-03T10:19:54.330Z,855.00
2018-08-03T10:20:54.349Z,838.13
2018-08-03T10:21:54.366Z,826.88
2018-08-03T10:22:54.385Z,815.63
2018-08-03T10:23:54.405Z,810.00
2018-08-03T10:24:54.423Z,810.00
2018-08-03T10:25:54.441Z,810.00
2018-08-03T10:26:54.459Z,804.38
2018-08-03T10:27:54.477Z,798.75
2018-08-03T10:28:54.494Z,798.75
2018-08-03T10:29:54.513Z,793.13
2018-08-03T10:30:54.532Z,793.13
2018-08-03T10:31:54.550Z,781.88
2018-08-03T10:32:54.570Z,781.88
2018-08-03T10:33:54.586Z,781.88
2018-08-03T10:34:54.606Z,781.88
2018-08-03T10:35:54.622Z,781.88
2018-08-03T10:36:54.640Z,781.88
2018-08-03T10:37:54.658Z,776.25
2018-08-03T10:38:54.675Z,770.63
2018-08-03T10:39:54.692Z,776.25
2018-08-03T10:40:54.715Z,787.50
2018-08-03T10:41:54.729Z,804.38
2018-08-03T10:42:54.779Z,821.25
2018-08-03T10:43:54.765Z,815.63
2018-08-03T10:44:54.784Z,826.88
2018-08-03T10:45:54.801Z,866.25
2018-08-03T10:46:54.819Z,905.63
2018-08-03T10:47:54.837Z,961.88
2018-08-03T10:48:54.855Z,1006.88
2018-08-03T10:49:54.873Z,1046.25
2018-08-03T10:50:54.889Z,1006.88
2018-08-03T10:51:54.908Z,978.75
2018-08-03T10:52:54.925Z,961.88
2018-08-03T10:53:54.940Z,933.75
2018-08-03T10:54:54.964Z,911.25
2018-08-03T10:55:54.976Z,860.63
2018-08-03T10:56:54.993Z,855.00
2018-08-03T10:57:55.011Z,855.00
2018-08-03T10:58:55.029Z,883.13
2018-08-03T10:59:55.045Z,933.75
2018-08-03T11:00:55.064Z,967.50
2018-08-03T11:01:55.079Z,1001.25
2018-08-03T11:02:55.097Z,1001.25
2018-08-03T11:03:55.115Z,916.88
2018-08-03T11:04:55.134Z,894.38
2018-08-03T11:05:55.150Z,871.88
2018-08-03T11:06:55.221Z,860.63
2018-08-03T11:07:55.180Z,838.13
2018-08-03T11:08:55.199Z,826.88
2018-08-03T11:09:55.215Z,793.13
2018-08-03T11:10:55.232Z,776.25
2018-08-03T11:11:55.250Z,742.50
2018-08-03T11:12:55.266Z,720.00
2018-08-03T11:13:55.340Z,686.25
2018-08-03T11:14:55.299Z,675.00
2018-08-03T11:15:55.316Z,669.38
2018-08-03T11:16:55.334Z,652.50
2018-08-03T11:17:55.348Z,641.25
2018-08-03T11:18:55.379Z,618.75
2018-08-03T11:19:55.384Z,607.50
2018-08-03T11:20:55.401Z,601.88
2018-08-03T11:21:55.421Z,540.00
2018-08-03T11:22:55.433Z,483.75
2018-08-03T11:23:55.450Z,461.25
2018-08-03T11:24:55.467Z,444.38
2018-08-03T11:25:55.482Z,455.63
2018-08-03T11:26:55.499Z,461.25
2018-08-03T11:27:55.516Z,466.88
2018-08-03T11:28:55.532Z,461.25
2018-08-03T11:29:55.550Z,450.00
2018-08-03T11:30:55.563Z,444.38
2018-08-03T11:31:55.580Z,444.38
2018-08-03T11:32:55.595Z,444.38
2018-08-03T11:33:55.611Z,444.38
2018-08-03T11:34:55.626Z,444.38
2018-08-03T11:35:55.641Z,450.00
2018-08-03T11:36:55.659Z,438.75
2018-08-03T11:37:55.673Z,433.13
2018-08-03T11:38:55.687Z,438.75
2018-08-03T11:39:55.701Z,433.13
2018-08-03T11:40:55.751Z,438.75
2018-08-03T11:41:55.734Z,444.38
2018-08-03T11:42:55.750Z,450.00
2018-08-03T11:43:55.762Z,455.63
2018-08-03T11:44:55.778Z,461.25
2018-08-03T11:45:55.792Z,461.25
2018-08-03T11:46:55.807Z,472.50
2018-08-03T11:47:55.822Z,472.50
2018-08-03T11:48:55.837Z,483.75
2018-08-03T11:49:55.851Z,483.75
2018-08-03T11:50:55.865Z,483.75
2018-08-03T11:51:55.885Z,483.75
2018-08-03T11:52:55.896Z,478.13
2018-08-03T11:53:55.914Z,466.88
2018-08-03T11:54:55.924Z,455.63
2018-08-03T11:55:55.937Z,450.00
2018-08-03T11:56:55.953Z,450.00
2018-08-03T11:57:55.965Z,450.00
2018-08-03T11:58:55.982Z,444.38
2018-08-03T11:59:55.995Z,444.38
2018-08-03T12:00:56.046Z,450.00
2018-08-03T12:01:56.049Z,444.38
2018-08-03T12:02:56.040Z,450.00
2018-08-03T12:03:56.053Z,450.00
2018-08-03T12:04:56.073Z,438.75
2018-08-03T12:05:56.080Z,433.13
2018-08-03T12:06:56.093Z,421.88
2018-08-03T12:07:56.108Z,421.88
2018-08-03T12:08:56.121Z,421.88
2018-08-03T12:09:56.138Z,421.88
2018-08-03T12:10:56.178Z,421.88
2018-08-03T12:11:56.166Z,421.88
2018-08-03T12:12:56.178Z,427.50
2018-08-03T12:13:56.189Z,421.88
2018-08-03T12:14:56.207Z,421.88
2018-08-03T12:15:56.220Z,416.25
2018-08-03T12:16:56.234Z,405.00
2018-08-03T12:17:56.333Z,405.00
2018-08-03T12:18:56.260Z,393.75
2018-08-03T12:19:56.275Z,393.75
2018-08-03T12:20:56.290Z,388.13
2018-08-03T12:21:56.302Z,388.13
2018-08-03T12:22:56.317Z,393.75
2018-08-03T12:23:56.372Z,393.75
2018-08-03T12:24:56.344Z,393.75
2018-08-03T12:25:56.357Z,388.13
2018-08-03T12:26:56.373Z,388.13
2018-08-03T12:27:56.386Z,382.50
2018-08-03T12:28:56.399Z,382.50
2018-08-03T12:29:56.412Z,388.13
2018-08-03T12:30:56.426Z,388.13
2018-08-03T12:31:56.444Z,382.50
2018-08-03T12:32:56.454Z,382.50
2018-08-03T12:33:56.468Z,382.50
2018-08-03T12:34:56.482Z,382.50
2018-08-03T12:35:56.495Z,388.13
2018-08-03T12:36:56.548Z,393.75
2018-08-03T12:37:56.522Z,410.63
2018-08-03T12:38:56.536Z,416.25
2018-08-03T12:39:56.549Z,410.63
2018-08-03T12:40:56.570Z,405.00